Terminal Aerodrome Forecast
Issued by NWS Twin Cities, MN

Home | Current Version | Previous Version | Graphics & Text | Print | Product List | Glossary On
Versions: 1 2 3 4 5 6 7 8 9 10 11 12 13 14 15 16 17 18 19 20 21 22 23 24 25 26 27 28 29 30
000
FTUS43 KMPX 262328
TAFMSP
TAF
KMSP 262328Z 2700/2806 34008KT 6SM -RA BR SCT008 BKN015 OVC080
     FM270100 34007KT P6SM -RA BKN025 BKN090
     FM270200 32007KT P6SM VCSH SCT025 BKN090
     FM271000 26005KT 5SM BR SCT090
     FM271200 27008KT P6SM SCT070=

USA.gov is the U.S. government's official web portal to all federal, state and local government web resources and services.